createdAt,value
2022-10-11T00:01:37.458Z,17.40
2022-10-11T00:06:31.065Z,16.60
2022-10-11T00:11:24.563Z,17.10
2022-10-11T00:16:17.548Z,17.42
2022-10-11T00:21:13.428Z,17.77
2022-10-11T00:26:10.004Z,16.58
2022-10-11T00:31:05.875Z,17.35
2022-10-11T00:36:01.532Z,17.35
2022-10-11T00:40:55.440Z,17.45
2022-10-11T00:46:01.341Z,16.58
2022-10-11T00:50:56.304Z,17.00
2022-10-11T00:56:00.415Z,15.38
2022-10-11T01:00:55.085Z,16.27
2022-10-11T01:05:48.896Z,16.00
2022-10-11T01:10:42.499Z,14.93
2022-10-11T01:15:43.512Z,16.15
2022-10-11T01:20:54.384Z,15.73
2022-10-11T01:26:12.601Z,16.23
2022-10-11T01:31:30.901Z,16.08
2022-10-11T01:37:01.829Z,17.30
2022-10-11T01:41:56.973Z,16.65
2022-10-11T01:47:11.448Z,17.30
2022-10-11T01:52:08.087Z,18.48
2022-10-11T01:57:29.331Z,17.20
2022-10-11T02:02:28.203Z,18.95
2022-10-11T02:07:46.297Z,18.17
2022-10-11T02:12:43.559Z,19.55
2022-10-11T02:17:46.971Z,19.73
2022-10-11T02:22:41.975Z,20.15
2022-10-11T02:27:36.934Z,19.48
2022-10-11T02:32:30.586Z,16.73
2022-10-11T02:37:32.836Z,17.88
2022-10-11T02:42:29.839Z,18.15
2022-10-11T02:47:23.563Z,19.25
2022-10-11T02:52:16.603Z,18.67
2022-10-11T02:57:10.574Z,18.58
2022-10-11T03:02:04.480Z,17.83
2022-10-11T03:06:58.653Z,19.13
2022-10-11T03:11:52.463Z,18.75
2022-10-11T03:16:45.760Z,20.90
2022-10-11T03:21:40.218Z,20.70
2022-10-11T03:26:33.670Z,20.88
2022-10-11T03:31:27.990Z,19.63
2022-10-11T03:36:22.425Z,20.30
2022-10-11T03:41:15.510Z,20.38
2022-10-11T03:46:09.181Z,20.42
2022-10-11T03:51:02.935Z,20.35
2022-10-11T03:55:57.238Z,21.20
2022-10-11T04:00:51.153Z,19.73
2022-10-11T04:05:44.585Z,21.17
2022-10-11T04:10:38.773Z,22.10
2022-10-11T04:15:32.347Z,20.92
2022-10-11T04:20:25.872Z,19.77
2022-10-11T04:25:19.741Z,20.38
2022-10-11T04:30:13.448Z,21.30
2022-10-11T04:35:07.253Z,21.90
2022-10-11T04:40:00.885Z,20.92
2022-10-11T04:44:53.785Z,22.25
2022-10-11T04:49:46.772Z,22.50
2022-10-11T04:54:40.471Z,19.70
2022-10-11T04:59:34.423Z,21.35
2022-10-11T05:04:28.707Z,22.52
2022-10-11T05:09:22.614Z,19.60
2022-10-11T05:14:16.129Z,20.65
2022-10-11T05:19:09.681Z,21.48
2022-10-11T05:24:04.122Z,20.42
2022-10-11T05:28:59.477Z,23.10
2022-10-11T05:33:52.665Z,23.13
2022-10-11T05:38:46.778Z,23.85
2022-10-11T05:43:40.347Z,22.80
2022-10-11T05:48:34.142Z,22.48
2022-10-11T05:53:27.773Z,21.92
2022-10-11T05:58:21.816Z,21.98
2022-10-11T06:03:15.701Z,23.40
2022-10-11T06:08:11.508Z,22.67
2022-10-11T06:13:05.774Z,20.15
2022-10-11T06:17:59.914Z,24.50
2022-10-11T06:22:53.755Z,21.33
2022-10-11T06:27:47.899Z,24.50
2022-10-11T06:32:42.441Z,23.33
2022-10-11T06:37:36.658Z,24.63
2022-10-11T06:42:30.293Z,23.90
2022-10-11T06:47:23.812Z,24.15
2022-10-11T06:52:17.879Z,25.25
2022-10-11T06:57:11.560Z,23.73
2022-10-11T07:02:05.635Z,23.67
2022-10-11T07:07:00.125Z,24.48
2022-10-11T07:11:54.141Z,21.67
2022-10-11T07:16:48.789Z,22.92
2022-10-11T07:21:43.317Z,22.73
2022-10-11T07:26:38.853Z,22.02
2022-10-11T07:31:33.292Z,20.85
2022-10-11T07:36:26.899Z,23.23
2022-10-11T07:41:20.895Z,23.05
2022-10-11T07:46:15.351Z,21.15
2022-10-11T07:51:12.117Z,17.92
2022-10-11T07:56:05.734Z,17.05
2022-10-11T08:01:00.658Z,17.05
2022-10-11T08:05:54.905Z,14.93
2022-10-11T08:10:49.333Z,15.70
2022-10-11T08:15:43.408Z,14.70
2022-10-11T08:20:39.965Z,15.02
2022-10-11T08:25:37.889Z,15.65
2022-10-11T08:30:32.104Z,15.70
2022-10-11T08:35:25.848Z,14.68
2022-10-11T08:40:21.650Z,15.77
2022-10-11T08:45:49.942Z,15.57
2022-10-11T08:50:47.104Z,17.83
2022-10-11T08:55:50.012Z,18.90
2022-10-11T09:00:44.244Z,19.88
2022-10-11T09:05:51.353Z,18.27
2022-10-11T09:11:11.545Z,14.40
2022-10-11T09:16:24.688Z,16.85
2022-10-11T09:21:43.481Z,14.63
2022-10-11T09:26:57.751Z,15.25
2022-10-11T09:31:54.847Z,14.30
2022-10-11T09:36:58.837Z,13.68
2022-10-11T09:42:08.556Z,14.07
2022-10-11T09:47:02.548Z,13.70
2022-10-11T09:51:59.290Z,14.68
2022-10-11T09:56:52.932Z,14.40
2022-10-11T10:01:46.799Z,14.60
2022-10-11T10:06:41.548Z,14.18
2022-10-11T10:11:37.651Z,15.98
2022-10-11T10:16:33.815Z,14.38
2022-10-11T10:21:36.664Z,14.73
2022-10-11T10:26:31.952Z,15.75
2022-10-11T10:31:28.024Z,13.75
2022-10-11T10:36:28.423Z,14.40
2022-10-11T10:41:21.247Z,16.88
2022-10-11T10:46:35.988Z,15.73
2022-10-11T10:51:36.337Z,14.68
2022-10-11T10:56:34.089Z,13.63
2022-10-11T11:01:33.533Z,14.18
2022-10-11T11:06:38.611Z,11.68
2022-10-11T11:11:50.859Z,13.45
2022-10-11T11:17:15.989Z,12.90
2022-10-11T11:22:15.227Z,13.65
2022-10-11T11:27:19.574Z,13.40
2022-10-11T11:32:24.240Z,13.02
2022-10-11T11:37:28.725Z,12.80
2022-10-11T11:42:37.199Z,11.65
2022-10-11T11:47:36.511Z,12.65
2022-10-11T11:53:05.549Z,14.13
2022-10-11T11:58:12.824Z,12.43
2022-10-11T12:03:25.158Z,12.73
2022-10-11T12:08:31.212Z,14.20
2022-10-11T12:13:32.384Z,14.80
2022-10-11T12:18:26.248Z,14.75
2022-10-11T12:23:42.472Z,14.35
2022-10-11T12:28:39.603Z,15.43
2022-10-11T12:33:33.528Z,13.85
2022-10-11T12:38:30.933Z,15.27
2022-10-11T12:43:33.802Z,11.88
2022-10-11T12:48:48.245Z,12.68
2022-10-11T12:54:25.065Z,12.18
2022-10-11T12:59:20.457Z,14.45
2022-10-11T13:04:15.383Z,13.55
2022-10-11T13:09:11.297Z,11.50
2022-10-11T13:14:25.177Z,11.65
2022-10-11T13:19:22.602Z,12.77
2022-10-11T13:29:17.199Z,11.07
2022-10-11T13:34:12.151Z,13.15
2022-10-11T13:39:05.609Z,12.10
2022-10-11T13:44:00.472Z,14.60
2022-10-11T13:49:04.983Z,12.23
2022-10-11T13:54:09.442Z,11.80
2022-10-11T13:59:06.607Z,11.27
2022-10-11T14:04:02.485Z,10.85
2022-10-11T14:08:57.325Z,11.10
2022-10-11T14:13:51.517Z,9.75
2022-10-11T14:19:02.209Z,10.02
2022-10-11T14:24:13.280Z,9.32
2022-10-11T14:29:14.711Z,9.90
2022-10-11T14:34:09.113Z,11.32
2022-10-11T14:39:02.876Z,10.73
2022-10-11T14:43:58.603Z,11.07
2022-10-11T14:48:56.202Z,11.38
2022-10-11T14:53:50.417Z,10.55
2022-10-11T14:58:44.930Z,9.65
2022-10-11T15:03:39.288Z,10.45
2022-10-11T15:08:33.041Z,11.00
2022-10-11T15:13:26.317Z,12.00
2022-10-11T15:18:21.695Z,8.77
2022-10-11T15:23:15.767Z,10.75
2022-10-11T15:28:09.467Z,11.77
2022-10-11T15:33:03.623Z,12.25
2022-10-11T15:37:59.736Z,11.95
2022-10-11T15:42:54.457Z,11.35
2022-10-11T15:47:48.215Z,10.77
2022-10-11T15:52:42.105Z,10.85
2022-10-11T15:57:35.895Z,12.00
2022-10-11T16:02:30.157Z,9.88
2022-10-11T16:07:24.181Z,10.27
2022-10-11T16:12:18.852Z,10.20
2022-10-11T16:17:12.159Z,10.95
2022-10-11T16:22:05.088Z,11.50
2022-10-11T16:26:58.092Z,10.23
2022-10-11T16:31:52.257Z,11.05
2022-10-11T16:36:47.254Z,9.50
2022-10-11T16:41:45.399Z,9.63
2022-10-11T16:46:39.011Z,11.52
2022-10-11T16:51:32.276Z,10.25
2022-10-11T16:56:26.294Z,9.52
2022-10-11T17:01:19.282Z,13.80
2022-10-11T17:06:16.902Z,11.45
2022-10-11T17:11:15.315Z,13.03
2022-10-11T17:16:09.809Z,12.55
2022-10-11T17:21:05.063Z,12.45
2022-10-11T17:25:59.289Z,12.30
2022-10-11T17:30:59.165Z,10.82
2022-10-11T17:35:57.335Z,11.60
2022-10-11T17:41:00.501Z,10.60
2022-10-11T17:46:16.921Z,12.13
2022-10-11T17:51:34.681Z,12.40
2022-10-11T17:56:33.704Z,11.90
2022-10-11T18:01:30.508Z,13.55
2022-10-11T18:06:23.861Z,12.80
2022-10-11T18:11:19.153Z,12.30
2022-10-11T18:16:14.329Z,14.55
2022-10-11T18:21:08.462Z,14.35
2022-10-11T18:26:14.391Z,12.75
2022-10-11T18:31:14.150Z,16.45
2022-10-11T18:36:11.454Z,15.15
2022-10-11T18:41:11.192Z,16.08
2022-10-11T18:46:13.191Z,15.25
2022-10-11T18:51:09.850Z,14.82
2022-10-11T18:56:05.831Z,13.80
2022-10-11T19:01:20.548Z,15.55
2022-10-11T19:06:19.395Z,16.35
2022-10-11T19:16:17.880Z,16.67
2022-10-11T19:21:13.440Z,15.57
2022-10-11T19:26:14.268Z,14.95
2022-10-11T19:31:09.282Z,16.00
2022-10-11T19:36:05.366Z,15.75
2022-10-11T19:41:01.385Z,14.95
2022-10-11T19:46:07.191Z,15.05
2022-10-11T19:51:06.772Z,13.63
2022-10-11T19:56:07.951Z,14.00
2022-10-11T20:01:02.265Z,16.42
2022-10-11T20:05:55.966Z,17.85
2022-10-11T20:10:49.585Z,17.38
2022-10-11T20:15:42.900Z,17.52
2022-10-11T20:20:36.247Z,16.67
2022-10-11T20:25:30.338Z,16.42
2022-10-11T20:30:24.722Z,14.43
2022-10-11T20:35:18.873Z,15.02
2022-10-11T20:40:15.101Z,15.10
2022-10-11T20:45:10.486Z,15.95
2022-10-11T20:50:03.818Z,17.73
2022-10-11T20:54:58.581Z,18.15
2022-10-11T20:59:51.990Z,18.58
2022-10-11T21:04:46.312Z,19.98
2022-10-11T21:09:41.941Z,18.98
2022-10-11T21:14:35.969Z,19.67
2022-10-11T21:19:30.452Z,18.13
2022-10-11T21:24:25.006Z,16.98
2022-10-11T21:29:19.028Z,20.02
2022-10-11T21:34:12.589Z,17.92
2022-10-11T21:39:06.404Z,18.55
2022-10-11T21:44:00.317Z,19.27
2022-10-11T21:48:54.045Z,18.65
2022-10-11T21:53:48.090Z,20.40
2022-10-11T21:58:42.004Z,20.13
2022-10-11T22:03:35.463Z,19.55
2022-10-11T22:08:28.981Z,19.67
2022-10-11T22:13:22.156Z,19.85
2022-10-11T22:18:16.216Z,19.08
2022-10-11T22:23:09.814Z,21.55
2022-10-11T22:28:08.292Z,21.52
2022-10-11T22:33:02.842Z,22.55
2022-10-11T22:37:56.533Z,24.75
2022-10-11T22:42:50.807Z,22.20
2022-10-11T22:47:44.915Z,25.42
2022-10-11T22:52:38.387Z,26.75
2022-10-11T22:57:32.602Z,24.92
2022-10-11T23:02:26.376Z,24.90
2022-10-11T23:07:20.757Z,24.48
2022-10-11T23:12:15.389Z,23.95
2022-10-11T23:17:09.204Z,23.45
2022-10-11T23:22:02.617Z,22.65
2022-10-11T23:26:56.504Z,20.33
2022-10-11T23:31:51.573Z,21.58
2022-10-11T23:36:45.552Z,19.13
2022-10-11T23:41:39.429Z,17.25
2022-10-11T23:46:32.869Z,17.92
2022-10-11T23:51:27.228Z,20.23
2022-10-11T23:56:21.379Z,19.42
